BTK666 WAHI-WIHH
Flight info
| Callsign | BTK666 |
|---|---|
| Flight time | 0h 39m |
| Altitude | 28000 |
| Route | WAHI/11 N0475F300 CA2L CA W17S IMU IMU1B WIHH/24 |
| Aircraft | A320/M-SDE2E3FGHIRWXY/LB1 |
Departure
| Time | 2026-05-05 14:46 |
|---|---|
| Airport | Yogyakarta International Airport (WAHI) |
Arrival
| Time | 2026-05-05 15:25 |
|---|---|
| Airport | Halim Perdanakusuma International Airport (WIHH) |
| Time | Latitude | Longitude | Altitude | Speed | Heading |
|---|---|---|---|---|---|
| 2026-05-05 14:26 | -7.90047 | 110.05719 | 33 ft | 0 kts | 20° |
| 2026-05-05 14:35 | -7.90052 | 110.05717 | 33 ft | 4 kts | 19° |
| 2026-05-05 14:36 | -7.90077 | 110.05708 | 32 ft | 4 kts | 17° |
| 2026-05-05 14:36 | -7.90103 | 110.05701 | 32 ft | 4 kts | 12° |
| 2026-05-05 14:36 | -7.90129 | 110.05697 | 31 ft | 4 kts | 1° |
| 2026-05-05 14:36 | -7.90154 | 110.05701 | 31 ft | 4 kts | 310° |
| 2026-05-05 14:37 | -7.90159 | 110.05709 | 32 ft | 1 kts | 291° |
| 2026-05-05 14:37 | -7.90159 | 110.05710 | 34 ft | 0 kts | 291° |
| 2026-05-05 14:40 | -7.90156 | 110.05702 | 34 ft | 3 kts | 291° |
| 2026-05-05 14:40 | -7.90144 | 110.05670 | 34 ft | 6 kts | 291° |
| 2026-05-05 14:40 | -7.90127 | 110.05624 | 34 ft | 8 kts | 291° |
| 2026-05-05 14:41 | -7.90105 | 110.05566 | 33 ft | 10 kts | 291° |
| 2026-05-05 14:41 | -7.90080 | 110.05499 | 32 ft | 10 kts | 290° |
| 2026-05-05 14:41 | -7.90054 | 110.05430 | 32 ft | 11 kts | 291° |
| 2026-05-05 14:41 | -7.90025 | 110.05353 | 34 ft | 12 kts | 291° |
| 2026-05-05 14:42 | -7.89993 | 110.05268 | 32 ft | 14 kts | 291° |
| 2026-05-05 14:42 | -7.89965 | 110.05174 | 34 ft | 14 kts | 257° |
| 2026-05-05 14:42 | -7.90049 | 110.05123 | 33 ft | 16 kts | 199° |
| 2026-05-05 14:42 | -7.90106 | 110.05047 | 33 ft | 16 kts | 290° |
| 2026-05-05 14:43 | -7.90058 | 110.04945 | 34 ft | 16 kts | 295° |
| 2026-05-05 14:43 | -7.90017 | 110.04834 | 34 ft | 18 kts | 288° |
| 2026-05-05 14:43 | -7.89980 | 110.04714 | 36 ft | 18 kts | 287° |
| 2026-05-05 14:43 | -7.89933 | 110.04596 | 37 ft | 18 kts | 294° |
| 2026-05-05 14:44 | -7.89890 | 110.04467 | 36 ft | 21 kts | 287° |
| 2026-05-05 14:44 | -7.89854 | 110.04334 | 36 ft | 18 kts | 258° |
| 2026-05-05 14:44 | -7.89941 | 110.04326 | 37 ft | 14 kts | 157° |
| 2026-05-05 14:44 | -7.90031 | 110.04365 | 39 ft | 14 kts | 143° |
| 2026-05-05 14:45 | -7.90073 | 110.04459 | 37 ft | 22 kts | 109° |
| 2026-05-05 14:45 | -7.90208 | 110.04835 | 35 ft | 88 kts | 110° |
| 2026-05-05 14:45 | -7.90482 | 110.05583 | 41 ft | 137 kts | 110° |
| 2026-05-05 14:45 | -7.90861 | 110.06607 | 157 ft | 167 kts | 111° |
| 2026-05-05 14:46 | -7.91492 | 110.07568 | 792 ft | 166 kts | 144° |
| 2026-05-05 14:46 | -7.92573 | 110.07945 | 1294 ft | 169 kts | 171° |
| 2026-05-05 14:46 | -7.93799 | 110.08087 | 1551 ft | 187 kts | 170° |
| 2026-05-05 14:46 | -7.95168 | 110.08254 | 1743 ft | 210 kts | 170° |
| 2026-05-05 14:47 | -7.96704 | 110.08449 | 2038 ft | 232 kts | 170° |
| 2026-05-05 14:47 | -7.98353 | 110.08606 | 2540 ft | 249 kts | 180° |
| 2026-05-05 14:47 | -8.00040 | 110.08077 | 3056 ft | 268 kts | 212° |
| 2026-05-05 14:47 | -8.01295 | 110.06660 | 3694 ft | 283 kts | 243° |
| 2026-05-05 14:48 | -8.01684 | 110.04655 | 4044 ft | 305 kts | 276° |
| 2026-05-05 14:48 | -8.00957 | 110.02634 | 4685 ft | 312 kts | 303° |
| 2026-05-05 14:48 | -7.99660 | 110.00937 | 5664 ft | 306 kts | 313° |
| 2026-05-05 14:48 | -7.98153 | 109.99364 | 6175 ft | 316 kts | 317° |
| 2026-05-05 14:49 | -7.96556 | 109.97810 | 6812 ft | 321 kts | 317° |
| 2026-05-05 14:49 | -7.94950 | 109.96222 | 7466 ft | 326 kts | 316° |
| 2026-05-05 14:49 | -7.93353 | 109.94578 | 8149 ft | 330 kts | 315° |
| 2026-05-05 14:49 | -7.91779 | 109.92883 | 8834 ft | 333 kts | 314° |
| 2026-05-05 14:50 | -7.90210 | 109.91142 | 9496 ft | 337 kts | 313° |
| 2026-05-05 14:50 | -7.88639 | 109.89370 | 10116 ft | 340 kts | 313° |
| 2026-05-05 14:50 | -7.87062 | 109.87577 | 10695 ft | 344 kts | 313° |
| 2026-05-05 14:50 | -7.85468 | 109.85764 | 11272 ft | 347 kts | 312° |
| 2026-05-05 14:51 | -7.83859 | 109.83940 | 11844 ft | 350 kts | 313° |
| 2026-05-05 14:51 | -7.82228 | 109.82101 | 12424 ft | 353 kts | 313° |
| 2026-05-05 14:51 | -7.80585 | 109.80248 | 13003 ft | 356 kts | 312° |
| 2026-05-05 14:51 | -7.78932 | 109.78382 | 13570 ft | 359 kts | 312° |
| 2026-05-05 14:52 | -7.77260 | 109.76497 | 14090 ft | 361 kts | 312° |
| 2026-05-05 14:52 | -7.75580 | 109.74602 | 14595 ft | 364 kts | 312° |
| 2026-05-05 14:52 | -7.73885 | 109.72693 | 15098 ft | 367 kts | 312° |
| 2026-05-05 14:52 | -7.72176 | 109.70771 | 15595 ft | 369 kts | 312° |
| 2026-05-05 14:53 | -7.70457 | 109.68840 | 16101 ft | 371 kts | 312° |
| 2026-05-05 14:53 | -7.68727 | 109.66898 | 16596 ft | 374 kts | 312° |
| 2026-05-05 14:53 | -7.66982 | 109.64936 | 17081 ft | 376 kts | 312° |
| 2026-05-05 14:53 | -7.65229 | 109.62962 | 17574 ft | 379 kts | 312° |
| 2026-05-05 14:54 | -7.63464 | 109.60978 | 18064 ft | 382 kts | 311° |
| 2026-05-05 14:54 | -7.61710 | 109.59004 | 18494 ft | 384 kts | 311° |
| 2026-05-05 14:54 | -7.59922 | 109.56992 | 18918 ft | 386 kts | 312° |
| 2026-05-05 14:54 | -7.58100 | 109.54943 | 19347 ft | 388 kts | 312° |
| 2026-05-05 14:55 | -7.56316 | 109.52934 | 19763 ft | 391 kts | 312° |
| 2026-05-05 14:55 | -7.54499 | 109.50887 | 20181 ft | 393 kts | 312° |
| 2026-05-05 14:55 | -7.52935 | 109.49129 | 20541 ft | 395 kts | 312° |
| 2026-05-05 14:55 | -7.51751 | 109.47796 | 20805 ft | 397 kts | 312° |
| 2026-05-05 14:56 | -7.50074 | 109.45910 | 21188 ft | 399 kts | 312° |
| 2026-05-05 14:56 | -7.48213 | 109.43821 | 21598 ft | 401 kts | 312° |
| 2026-05-05 14:56 | -7.46339 | 109.41722 | 22010 ft | 404 kts | 312° |
| 2026-05-05 14:56 | -7.44455 | 109.39612 | 22410 ft | 406 kts | 312° |
| 2026-05-05 14:57 | -7.42559 | 109.37485 | 22808 ft | 409 kts | 312° |
| 2026-05-05 14:57 | -7.40655 | 109.35348 | 23201 ft | 412 kts | 312° |
| 2026-05-05 14:57 | -7.38735 | 109.33196 | 23580 ft | 414 kts | 312° |
| 2026-05-05 14:57 | -7.36808 | 109.31033 | 23897 ft | 416 kts | 312° |
| 2026-05-05 14:58 | -7.34871 | 109.28857 | 24222 ft | 418 kts | 312° |
| 2026-05-05 14:58 | -7.32926 | 109.26672 | 24544 ft | 420 kts | 312° |
| 2026-05-05 14:58 | -7.30970 | 109.24476 | 24862 ft | 422 kts | 312° |
| 2026-05-05 14:58 | -7.29006 | 109.22271 | 25178 ft | 424 kts | 313° |
| 2026-05-05 14:59 | -7.27037 | 109.20060 | 25481 ft | 426 kts | 313° |
| 2026-05-05 14:59 | -7.25040 | 109.17820 | 25602 ft | 433 kts | 313° |
| 2026-05-05 14:59 | -7.23014 | 109.15547 | 25720 ft | 439 kts | 313° |
| 2026-05-05 14:59 | -7.20956 | 109.13236 | 25834 ft | 445 kts | 313° |
| 2026-05-05 15:00 | -7.18872 | 109.10901 | 25958 ft | 451 kts | 313° |
| 2026-05-05 15:00 | -7.17480 | 109.09341 | 26029 ft | 454 kts | 313° |
| 2026-05-05 15:00 | -7.14635 | 109.06156 | 26185 ft | 460 kts | 313° |
| 2026-05-05 15:00 | -7.12481 | 109.03745 | 26311 ft | 464 kts | 313° |
| 2026-05-05 15:01 | -7.10316 | 109.01320 | 26466 ft | 467 kts | 313° |
| 2026-05-05 15:01 | -7.08138 | 108.98880 | 26664 ft | 469 kts | 313° |
| 2026-05-05 15:01 | -7.05957 | 108.96432 | 26898 ft | 470 kts | 313° |
| 2026-05-05 15:01 | -7.03775 | 108.93982 | 27217 ft | 469 kts | 313° |
| 2026-05-05 15:02 | -7.01601 | 108.91543 | 27530 ft | 468 kts | 313° |
| 2026-05-05 15:02 | -6.99424 | 108.89106 | 27845 ft | 468 kts | 313° |
| 2026-05-05 15:02 | -6.97249 | 108.86676 | 27941 ft | 470 kts | 313° |
| 2026-05-05 15:02 | -6.95046 | 108.84219 | 27957 ft | 474 kts | 313° |
| 2026-05-05 15:03 | -6.92834 | 108.81751 | 27956 ft | 475 kts | 313° |
| 2026-05-05 15:03 | -6.90651 | 108.79307 | 27957 ft | 476 kts | 313° |
| 2026-05-05 15:03 | -6.88440 | 108.76828 | 27953 ft | 476 kts | 313° |
| 2026-05-05 15:03 | -6.86230 | 108.74346 | 27951 ft | 476 kts | 313° |
| 2026-05-05 15:04 | -6.84018 | 108.71863 | 27955 ft | 476 kts | 313° |
| 2026-05-05 15:04 | -6.81802 | 108.69380 | 27952 ft | 476 kts | 313° |
| 2026-05-05 15:04 | -6.79588 | 108.66902 | 27950 ft | 477 kts | 313° |
| 2026-05-05 15:04 | -6.77368 | 108.64424 | 27950 ft | 477 kts | 313° |
| 2026-05-05 15:05 | -6.72927 | 108.59466 | 27947 ft | 477 kts | 313° |
| 2026-05-05 15:05 | -6.70631 | 108.57067 | 27939 ft | 475 kts | 319° |
| 2026-05-05 15:05 | -6.68023 | 108.55033 | 27935 ft | 474 kts | 328° |
| 2026-05-05 15:06 | -6.65176 | 108.53372 | 27936 ft | 473 kts | 332° |
| 2026-05-05 15:06 | -6.62300 | 108.51769 | 27933 ft | 473 kts | 332° |
| 2026-05-05 15:06 | -6.59424 | 108.50161 | 27929 ft | 473 kts | 332° |
| 2026-05-05 15:06 | -6.56549 | 108.48549 | 27930 ft | 473 kts | 332° |
| 2026-05-05 15:07 | -6.53676 | 108.46935 | 27928 ft | 473 kts | 332° |
| 2026-05-05 15:07 | -6.50801 | 108.45319 | 27923 ft | 473 kts | 332° |
| 2026-05-05 15:07 | -6.47929 | 108.43706 | 27921 ft | 473 kts | 332° |
| 2026-05-05 15:07 | -6.45050 | 108.42091 | 27924 ft | 473 kts | 332° |
| 2026-05-05 15:08 | -6.42175 | 108.40482 | 27924 ft | 473 kts | 332° |
| 2026-05-05 15:08 | -6.39334 | 108.38895 | 27925 ft | 473 kts | 332° |
| 2026-05-05 15:08 | -6.36433 | 108.37239 | 27925 ft | 474 kts | 329° |
| 2026-05-05 15:08 | -6.33845 | 108.35244 | 27920 ft | 476 kts | 318° |
| 2026-05-05 15:09 | -6.31625 | 108.32765 | 27920 ft | 478 kts | 307° |
| 2026-05-05 15:09 | -6.29862 | 108.29950 | 27398 ft | 472 kts | 298° |
| 2026-05-05 15:09 | -6.28612 | 108.26900 | 25855 ft | 476 kts | 286° |
| 2026-05-05 15:09 | -6.27861 | 108.23641 | 25063 ft | 477 kts | 283° |
| 2026-05-05 15:10 | -6.27111 | 108.20413 | 24449 ft | 472 kts | 284° |
| 2026-05-05 15:10 | -6.26328 | 108.17228 | 23852 ft | 467 kts | 284° |
| 2026-05-05 15:10 | -6.25522 | 108.14078 | 23222 ft | 463 kts | 285° |
| 2026-05-05 15:10 | -6.24713 | 108.10967 | 22542 ft | 458 kts | 285° |
| 2026-05-05 15:11 | -6.23912 | 108.07878 | 21885 ft | 454 kts | 285° |
| 2026-05-05 15:11 | -6.23129 | 108.04817 | 21236 ft | 449 kts | 284° |
| 2026-05-05 15:11 | -6.22366 | 108.01788 | 20613 ft | 445 kts | 284° |
| 2026-05-05 15:11 | -6.21625 | 107.98788 | 20018 ft | 441 kts | 282° |
| 2026-05-05 15:12 | -6.21215 | 107.95748 | 19456 ft | 437 kts | 272° |
| 2026-05-05 15:12 | -6.21147 | 107.92715 | 18905 ft | 433 kts | 271° |
| 2026-05-05 15:12 | -6.21087 | 107.89695 | 18382 ft | 430 kts | 271° |
| 2026-05-05 15:12 | -6.21023 | 107.86702 | 17832 ft | 427 kts | 271° |
| 2026-05-05 15:13 | -6.20956 | 107.83731 | 17281 ft | 424 kts | 271° |
| 2026-05-05 15:13 | -6.20888 | 107.80781 | 16749 ft | 420 kts | 271° |
| 2026-05-05 15:13 | -6.20821 | 107.77854 | 16214 ft | 417 kts | 271° |
| 2026-05-05 15:13 | -6.20752 | 107.74949 | 15677 ft | 414 kts | 271° |
| 2026-05-05 15:14 | -6.20684 | 107.72067 | 15143 ft | 411 kts | 271° |
| 2026-05-05 15:14 | -6.20616 | 107.69205 | 14603 ft | 408 kts | 271° |
| 2026-05-05 15:14 | -6.20546 | 107.66360 | 14064 ft | 405 kts | 271° |
| 2026-05-05 15:14 | -6.20479 | 107.63544 | 13499 ft | 402 kts | 271° |
| 2026-05-05 15:15 | -6.20415 | 107.60753 | 13033 ft | 395 kts | 271° |
| 2026-05-05 15:15 | -6.20353 | 107.58042 | 12348 ft | 385 kts | 271° |
| 2026-05-05 15:15 | -6.20288 | 107.55327 | 10821 ft | 393 kts | 271° |
| 2026-05-05 15:15 | -6.20217 | 107.52561 | 9666 ft | 397 kts | 271° |
| 2026-05-05 15:16 | -6.20146 | 107.49886 | 9517 ft | 379 kts | 271° |
| 2026-05-05 15:16 | -6.20076 | 107.47293 | 9389 ft | 363 kts | 271° |
| 2026-05-05 15:16 | -6.20010 | 107.44807 | 9260 ft | 349 kts | 271° |
| 2026-05-05 15:16 | -6.19951 | 107.42420 | 9134 ft | 336 kts | 271° |
| 2026-05-05 15:17 | -6.19896 | 107.40112 | 9009 ft | 324 kts | 271° |
| 2026-05-05 15:17 | -6.19842 | 107.37885 | 8881 ft | 314 kts | 271° |
| 2026-05-05 15:17 | -6.19795 | 107.35922 | 8517 ft | 305 kts | 271° |
| 2026-05-05 15:17 | -6.19740 | 107.33744 | 7422 ft | 319 kts | 271° |
| 2026-05-05 15:18 | -6.19681 | 107.31474 | 6562 ft | 324 kts | 271° |
| 2026-05-05 15:18 | -6.19622 | 107.29287 | 6418 ft | 302 kts | 271° |
| 2026-05-05 15:18 | -6.19587 | 107.27209 | 5943 ft | 295 kts | 270° |
| 2026-05-05 15:18 | -6.19587 | 107.25157 | 5379 ft | 292 kts | 269° |
| 2026-05-05 15:19 | -6.19602 | 107.23125 | 4821 ft | 290 kts | 269° |
| 2026-05-05 15:19 | -6.19621 | 107.21106 | 4273 ft | 287 kts | 269° |
| 2026-05-05 15:19 | -6.19634 | 107.19790 | 3931 ft | 284 kts | 269° |
| 2026-05-05 15:19 | -6.19654 | 107.17159 | 3406 ft | 277 kts | 269° |
| 2026-05-05 15:20 | -6.19660 | 107.15888 | 3265 ft | 274 kts | 270° |
| 2026-05-05 15:20 | -6.19668 | 107.14004 | 3124 ft | 266 kts | 270° |
| 2026-05-05 15:20 | -6.19673 | 107.12185 | 3002 ft | 250 kts | 270° |
| 2026-05-05 15:20 | -6.19677 | 107.10573 | 2899 ft | 229 kts | 269° |
| 2026-05-05 15:21 | -6.19681 | 107.09041 | 2800 ft | 209 kts | 270° |
| 2026-05-05 15:21 | -6.19685 | 107.07650 | 2715 ft | 192 kts | 270° |
| 2026-05-05 15:21 | -6.19689 | 107.06340 | 2681 ft | 185 kts | 269° |
| 2026-05-05 15:21 | -6.19692 | 107.05065 | 2568 ft | 182 kts | 270° |
| 2026-05-05 15:22 | -6.19909 | 107.03831 | 2469 ft | 179 kts | 245° |
| 2026-05-05 15:22 | -6.20432 | 107.02690 | 2351 ft | 179 kts | 244° |
| 2026-05-05 15:22 | -6.20955 | 107.01554 | 2241 ft | 179 kts | 244° |
| 2026-05-05 15:22 | -6.21475 | 107.00421 | 2155 ft | 178 kts | 244° |
| 2026-05-05 15:23 | -6.21993 | 106.99294 | 1972 ft | 177 kts | 244° |
| 2026-05-05 15:23 | -6.22506 | 106.98174 | 1762 ft | 175 kts | 244° |
| 2026-05-05 15:23 | -6.23008 | 106.97080 | 1550 ft | 169 kts | 244° |
| 2026-05-05 15:23 | -6.23486 | 106.96012 | 1258 ft | 166 kts | 245° |
| 2026-05-05 15:24 | -6.23941 | 106.94962 | 1010 ft | 161 kts | 248° |
| 2026-05-05 15:24 | -6.24362 | 106.93930 | 767 ft | 156 kts | 246° |
| 2026-05-05 15:24 | -6.24814 | 106.92956 | 511 ft | 151 kts | 243° |
| 2026-05-05 15:24 | -6.25295 | 106.92024 | 337 ft | 149 kts | 246° |
| 2026-05-05 15:25 | -6.25737 | 106.91081 | 209 ft | 149 kts | 245° |
| 2026-05-05 15:25 | -6.26183 | 106.90141 | 106 ft | 149 kts | 246° |
| 2026-05-05 15:25 | -6.26541 | 106.89367 | 95 ft | 81 kts | 245° |
| 2026-05-05 15:25 | -6.26687 | 106.89046 | 97 ft | 41 kts | 246° |
| 2026-05-05 15:26 | -6.26783 | 106.88819 | 94 ft | 33 kts | 246° |
| 2026-05-05 15:26 | -6.26889 | 106.88610 | 94 ft | 33 kts | 245° |
| 2026-05-05 15:26 | -6.26806 | 106.88501 | 93 ft | 22 kts | 336° |
| 2026-05-05 15:26 | -6.26697 | 106.88474 | 93 ft | 9 kts | 336° |
| 2026-05-05 15:27 | -6.26679 | 106.88466 | 93 ft | 0 kts | 335° |